Time;durP1;ratioP1;P1;durP2;ratioP2;P2;SDS_P1;SDS_P2;PMS_P1;PMS_P2;Temp;Humidity;BMP_temperature;BMP_pressure;BME280_temperature;BME280_humidity;BME280_pressure;Samples;Min_cycle;Max_cycle;Signal;HPM_P1;HPM_P2
2021/06/13 00:02:25;;;;;;;3.75;2.13;;;;;;;20.53;50.71;99454.00;5114812;28;20043;-74
2021/06/13 00:04:51;;;;;;;6.30;1.83;;;;;;;20.60;50.55;99454.13;5114342;28;20043;-74
2021/06/13 00:07:17;;;;;;;3.78;2.28;;;;;;;20.63;50.65;99452.91;5079652;28;20093;-75
2021/06/13 00:09:43;;;;;;;3.50;1.92;;;;;;;20.61;50.29;99458.50;5114530;28;20043;-74
2021/06/13 00:12:10;;;;;;;4.80;1.90;;;;;;;20.61;50.24;99450.38;5096228;28;20480;-74
2021/06/13 00:14:36;;;;;;;3.88;1.80;;;;;;;20.66;49.97;99458.00;5079466;28;20175;-76
2021/06/13 00:17:02;;;;;;;2.47;1.65;;;;;;;20.69;50.11;99457.63;5114153;28;20032;-75
2021/06/13 00:19:28;;;;;;;7.78;2.15;;;;;;;20.71;50.47;99460.97;5114289;28;20513;-74
2021/06/13 00:21:54;;;;;;;4.45;1.90;;;;;;;20.61;50.24;99467.53;5114451;28;20055;-75
2021/06/13 00:24:23;;;;;;;3.97;1.80;;;;;;;20.63;49.90;99464.63;5112964;28;20047;-74
2021/06/13 00:26:49;;;;;;;6.07;2.30;;;;;;;20.67;49.67;99467.81;5096080;28;20522;-74
2021/06/13 00:29:15;;;;;;;4.00;2.20;;;;;;;20.79;49.30;99479.91;5095693;28;20127;-74
2021/06/13 00:31:41;;;;;;;4.40;1.90;;;;;;;20.74;49.20;99482.34;5114178;28;20138;-74
2021/06/13 00:34:07;;;;;;;5.90;2.00;;;;;;;20.81;49.29;99483.28;5114013;28;20069;-74
2021/06/13 00:36:32;;;;;;;10.40;2.30;;;;;;;20.86;49.14;99483.56;5114019;28;20047;-73
2021/06/13 00:38:58;;;;;;;3.80;2.03;;;;;;;20.77;49.44;99482.81;5113832;28;20203;-74
2021/06/13 00:41:24;;;;;;;11.82;2.30;;;;;;;20.92;49.39;99491.00;5095688;28;20118;-73
2021/06/13 00:43:50;;;;;;;4.18;1.90;;;;;;;20.96;49.32;99486.88;5114083;28;20477;-74
2021/06/13 00:46:16;;;;;;;5.57;1.75;;;;;;;20.97;49.06;99496.72;5095827;28;20110;-73
2021/06/13 00:48:43;;;;;;;4.85;1.80;;;;;;;20.96;49.17;99497.75;5078841;28;20130;-74
2021/06/13 00:51:09;;;;;;;5.03;2.10;;;;;;;20.94;49.82;99513.38;5113923;28;20043;-74
2021/06/13 00:53:35;;;;;;;5.60;2.17;;;;;;;20.96;50.06;99505.91;5112388;28;20554;-74
2021/06/13 00:56:06;;;;;;;5.60;1.85;;;;;;;21.02;49.86;99517.88;5079516;28;20044;-74
2021/06/13 00:58:32;;;;;;;3.03;2.13;;;;;;;20.97;50.27;99518.44;5095418;28;20523;-74
2021/06/13 01:00:59;;;;;;;3.80;2.28;;;;;;;20.89;50.68;99515.81;5095652;28;20059;-74
2021/06/13 01:03:28;;;;;;;7.10;2.25;;;;;;;20.87;50.62;99520.56;5095336;28;20054;-74
2021/06/13 01:05:55;;;;;;;5.28;2.45;;;;;;;20.85;50.68;99518.06;5095410;28;20051;-74
2021/06/13 01:08:42;;;;;;;5.53;2.28;;;;;;;20.82;50.67;99513.00;5095338;28;20043;-75
2021/06/13 01:11:11;;;;;;;4.45;2.15;;;;;;;20.76;50.93;99523.75;5078396;28;20042;-74
2021/06/13 01:14:03;;;;;;;3.55;1.83;;;;;;;20.78;51.25;99519.81;5113769;28;20055;-74
2021/06/13 01:16:46;;;;;;;3.50;2.03;;;;;;;20.81;50.90;99521.34;5113408;28;20444;-74
2021/06/13 01:19:22;;;;;;;5.13;2.03;;;;;;;20.71;51.38;99521.59;5097126;28;20051;-75
2021/06/13 01:22:14;;;;;;;5.28;1.75;;;;;;;20.68;51.82;99534.69;5062100;28;20043;-73
2021/06/13 01:24:54;;;;;;;5.18;2.22;;;;;;;20.71;51.60;99532.44;5046811;28;20162;-74
2021/06/13 01:27:42;;;;;;;3.85;1.77;;;;;;;20.61;51.71;99540.88;5112455;28;20044;-75
2021/06/13 01:30:08;;;;;;;5.50;2.60;;;;;;;20.61;51.64;99542.72;5094938;28;20043;-75
2021/06/13 01:32:34;;;;;;;6.00;2.00;;;;;;;20.63;52.22;99539.84;5095138;28;20039;-74
2021/06/13 01:35:05;;;;;;;7.88;2.17;;;;;;;20.58;52.43;99543.09;5078689;28;20040;-74
2021/06/13 01:37:34;;;;;;;3.83;2.15;;;;;;;20.66;52.52;99553.91;5095248;28;20441;-75
2021/06/13 01:40:05;;;;;;;7.00;2.17;;;;;;;20.65;52.68;99537.75;5095124;28;20047;-75
2021/06/13 01:42:34;;;;;;;3.92;2.08;;;;;;;20.86;52.57;99548.78;5078638;28;20410;-75
2021/06/13 01:45:05;;;;;;;7.15;2.70;;;;;;;20.81;52.87;99541.19;5061462;28;20040;-74
2021/06/13 01:47:31;;;;;;;3.33;2.63;;;;;;;20.96;52.76;99554.81;5064449;28;20040;-75
2021/06/13 01:49:59;;;;;;;6.30;3.05;;;;;;;21.05;53.18;99561.84;5097813;28;20048;-75
2021/06/13 01:52:27;;;;;;;7.65;2.97;;;;;;;21.12;53.06;99567.38;5098741;28;20079;-73
2021/06/13 01:54:53;;;;;;;6.90;3.20;;;;;;;21.14;53.30;99554.47;5098656;28;20055;-75
2021/06/13 01:57:19;;;;;;;7.88;3.05;;;;;;;21.17;53.87;99580.41;5099132;28;20072;-73
2021/06/13 01:59:57;;;;;;;4.38;2.70;;;;;;;21.06;54.22;99569.00;5099147;28;20040;-76
2021/06/13 02:02:24;;;;;;;8.40;3.00;;;;;;;21.04;54.85;99575.63;5082082;28;20047;-74
2021/06/13 02:04:50;;;;;;;11.85;3.22;;;;;;;21.20;54.22;99583.63;5098816;28;20073;-75
2021/06/13 02:07:16;;;;;;;11.25;4.60;;;;;;;21.10;55.07;99575.75;5098697;28;20130;-74
2021/06/13 02:09:44;;;;;;;8.10;3.10;;;;;;;21.21;54.70;99592.59;5081980;28;20052;-75
2021/06/13 02:12:11;;;;;;;5.17;3.40;;;;;;;21.26;54.46;99585.59;5081845;28;20571;-73
2021/06/13 02:14:46;;;;;;;6.53;3.65;;;;;;;21.27;54.89;99586.44;5098702;28;20138;-74
2021/06/13 02:17:13;;;;;;;4.70;2.90;;;;;;;21.21;55.00;99592.59;5081445;28;20126;-75
2021/06/13 02:19:51;;;;;;;3.47;2.53;;;;;;;21.26;54.71;99587.47;5083669;28;20047;-73
2021/06/13 02:22:21;;;;;;;4.10;2.55;;;;;;;21.38;54.23;99582.44;5099248;28;20498;-74
2021/06/13 02:24:49;;;;;;;7.18;2.53;;;;;;;21.36;54.32;99588.06;5098339;28;20047;-74
2021/06/13 02:27:16;;;;;;;4.20;2.35;;;;;;;21.46;54.01;99579.63;5116487;28;20047;-74
2021/06/13 02:29:46;;;;;;;5.70;2.17;;;;;;;21.55;53.89;99573.94;5097297;28;20039;-74
2021/06/13 02:32:13;;;;;;;4.80;2.03;;;;;;;21.57;53.54;99590.91;5095472;28;20524;-74
2021/06/13 02:34:39;;;;;;;2.20;2.00;;;;;;;21.55;53.61;99576.66;5116424;28;20043;-74
2021/06/13 02:37:10;;;;;;;6.50;2.15;;;;;;;21.73;53.14;99583.56;5098532;28;20066;-74
2021/06/13 02:39:36;;;;;;;6.57;2.20;;;;;;;21.91;52.74;99572.28;5098231;28;20035;-74
2021/06/13 02:42:09;;;;;;;7.35;2.20;;;;;;;21.93;53.12;99590.13;5115468;28;20075;-74
2021/06/13 02:44:41;;;;;;;5.50;2.10;;;;;;;22.11;52.95;99595.13;5082799;28;20062;-74
2021/06/13 02:47:07;;;;;;;5.18;2.88;;;;;;;22.21;52.97;99587.56;5097918;28;20039;-73
2021/06/13 02:49:33;;;;;;;6.78;1.80;;;;;;;22.15;52.82;99587.47;5097982;28;20443;-73
2021/06/13 02:52:09;;;;;;;2.83;1.80;;;;;;;22.03;52.73;99585.22;5097574;28;20376;-74
2021/06/13 02:54:38;;;;;;;9.10;2.00;;;;;;;22.04;52.53;99595.09;5064669;28;20039;-83
2021/06/13 02:57:10;;;;;;;2.42;1.77;;;;;;;22.13;51.99;99597.69;5064209;28;20409;-72
2021/06/13 02:59:53;;;;;;;8.15;1.80;;;;;;;22.02;51.20;99602.59;5098586;28;20134;-74
2021/06/13 03:02:24;;;;;;;3.75;1.60;;;;;;;22.00;51.08;99603.78;5097875;28;20044;-75
2021/06/13 03:04:51;;;;;;;5.47;2.00;;;;;;;21.90;51.25;99598.66;5080766;28;20047;-75
2021/06/13 03:07:18;;;;;;;3.83;1.70;;;;;;;21.72;50.90;99600.94;5114438;28;20115;-74
2021/06/13 03:09:46;;;;;;;5.53;2.17;;;;;;;21.63;50.86;99612.97;5080684;28;20486;-75
2021/06/13 03:12:18;;;;;;;8.02;1.80;;;;;;;21.72;50.05;99609.09;5084814;27;20053;-74
2021/06/13 03:14:44;;;;;;;5.97;2.15;;;;;;;21.68;50.43;99610.50;5080614;28;20054;-75
2021/06/13 03:17:10;;;;;;;8.65;1.85;;;;;;;21.75;49.77;99606.00;5080934;28;20127;-76
2021/06/13 03:19:41;;;;;;;3.05;1.75;;;;;;;21.71;50.03;99610.13;5080928;28;20067;-75
2021/06/13 03:22:07;;;;;;;6.03;2.00;;;;;;;21.58;50.65;99606.16;5047012;28;20133;-75
2021/06/13 03:24:35;;;;;;;4.65;1.85;;;;;;;21.60;50.00;99618.75;5080180;28;20406;-74
2021/06/13 03:27:01;;;;;;;7.70;2.15;;;;;;;;;;5047251;28;20498;-74
2021/06/13 03:29:27;;;;;;;3.53;2.00;;;;;;;21.44;50.45;99620.63;5080277;28;20048;-75
2021/06/13 03:31:54;;;;;;;5.35;1.80;;;;;;;21.39;50.07;99623.03;5063616;28;20123;-75
2021/06/13 03:34:20;;;;;;;6.25;2.20;;;;;;;21.23;50.98;99634.06;5080390;28;20043;-76
2021/06/13 03:36:46;;;;;;;5.60;2.30;;;;;;;21.28;50.95;99639.78;5063211;28;20055;-75
2021/06/13 03:39:14;;;;;;;6.65;2.22;;;;;;;21.30;51.11;99641.28;5115092;28;20138;-75
2021/06/13 03:41:40;;;;;;;8.57;2.20;;;;;;;21.25;52.06;99643.72;5063790;28;20453;-75
2021/06/13 03:44:06;;;;;;;4.40;1.85;;;;;;;21.29;52.10;99634.19;5080045;28;20526;-75
2021/06/13 03:46:34;;;;;;;5.65;2.22;;;;;;;21.40;52.06;99642.94;5114731;28;20131;-75
2021/06/13 03:48:59;;;;;;;5.95;1.90;;;;;;;21.30;52.75;99630.41;5080065;28;20063;-76
2021/06/13 03:51:25;;;;;;;6.60;2.40;;;;;;;21.33;53.14;99645.56;5096526;28;20073;-75
2021/06/13 03:53:54;;;;;;;10.32;2.20;;;;;;;21.31;53.65;99644.84;5097247;28;20047;-76
2021/06/13 03:56:22;;;;;;;6.07;2.47;;;;;;;21.28;53.68;99637.06;5076565;28;20650;-78
2021/06/13 03:58:48;;;;;;;3.35;2.33;;;;;;;21.31;53.57;99653.00;5059991;28;20079;-75
2021/06/13 04:01:15;;;;;;;3.60;2.33;;;;;;;21.26;54.71;99655.44;5076284;28;20113;-75
2021/06/13 04:03:41;;;;;;;9.20;2.45;;;;;;;21.17;54.52;99656.53;5076152;28;20052;-76
2021/06/13 04:06:07;;;;;;;4.43;2.28;;;;;;;21.05;54.84;99654.25;5074910;28;20075;-76
2021/06/13 04:08:35;;;;;;;10.50;2.72;;;;;;;21.07;55.30;99657.66;5093628;28;20464;-80
2021/06/13 04:11:01;;;;;;;10.38;3.00;;;;;;;20.95;56.10;99660.97;5059256;28;20055;-76
2021/06/13 04:13:27;;;;;;;10.85;3.55;;;;;;;21.00;56.15;99667.56;5076118;28;20121;-79
2021/06/13 04:15:53;;;;;;;4.50;2.78;;;;;;;21.05;55.79;99667.84;5042190;28;20051;-76
2021/06/13 04:18:19;;;;;;;7.70;2.90;;;;;;;21.02;55.88;99670.91;5075500;28;20048;-79
2021/06/13 04:20:45;;;;;;;11.65;2.78;;;;;;;21.11;55.96;99674.44;5025688;28;20423;-78
2021/06/13 04:23:13;;;;;;;5.60;2.63;;;;;;;21.08;56.69;99686.50;5092129;28;20047;-76
2021/06/13 04:25:39;;;;;;;11.63;2.97;;;;;;;21.01;56.95;99685.53;5042206;28;20068;-76
2021/06/13 04:28:05;;;;;;;10.98;2.85;;;;;;;21.00;56.78;99694.72;5075303;28;20078;-77
2021/06/13 04:30:31;;;;;;;6.45;2.40;;;;;;;21.09;56.48;99698.22;5074604;28;20128;-77
2021/06/13 04:32:57;;;;;;;6.72;3.10;;;;;;;20.96;57.29;99703.44;5074799;28;20126;-78
2021/06/13 04:35:23;;;;;;;5.72;2.70;;;;;;;21.01;57.26;99699.13;5075452;28;20058;-79
2021/06/13 04:37:49;;;;;;;6.68;2.72;;;;;;;21.05;56.89;99692.31;5075456;28;20155;-78
2021/06/13 04:40:15;;;;;;;4.97;2.50;;;;;;;21.12;56.56;99697.88;5092223;28;20134;-76
2021/06/13 04:42:42;;;;;;;8.88;2.47;;;;;;;20.94;56.35;99706.31;5092995;28;20048;-73
2021/06/13 04:45:09;;;;;;;8.13;2.47;;;;;;;20.84;56.56;99706.56;5091803;28;20088;-76
2021/06/13 04:47:35;;;;;;;5.85;2.35;;;;;;;20.66;56.73;99707.88;5074217;28;20047;-79
2021/06/13 04:50:01;;;;;;;13.13;2.35;;;;;;;20.71;55.81;99710.91;5074962;28;20044;-74
2021/06/13 04:52:27;;;;;;;3.65;2.20;;;;;;;20.89;55.51;99716.06;5092607;28;20478;-73
2021/06/13 04:55:17;;;;;;;4.78;2.30;;;;;;;20.99;55.16;99731.09;5058869;28;20127;-76
2021/06/13 04:58:14;;;;;;;3.92;2.25;;;;;;;21.08;54.63;99735.44;5095195;28;20406;-73
2021/06/13 05:00:40;;;;;;;3.88;2.30;;;;;;;21.22;54.25;99732.97;5075245;28;20047;-76
2021/06/13 05:03:06;;;;;;;3.70;2.08;;;;;;;21.24;53.91;99737.19;5061557;28;20405;-74
2021/06/13 05:05:32;;;;;;;5.63;2.10;;;;;;;21.25;54.15;99746.19;5078195;28;20054;-76
2021/06/13 05:07:57;;;;;;;5.97;2.25;;;;;;;21.34;53.88;99740.53;5061724;28;20410;-76
2021/06/13 05:10:24;;;;;;;5.15;2.20;;;;;;;21.22;53.67;99747.41;5113126;28;20051;-75
2021/06/13 05:12:51;;;;;;;4.03;2.40;;;;;;;21.09;53.88;99758.03;5061684;28;20058;-75
2021/06/13 05:15:18;;;;;;;13.43;2.20;;;;;;;20.90;54.51;99753.91;5076879;28;20515;-75
2021/06/13 05:17:44;;;;;;;7.53;2.30;;;;;;;20.92;54.71;99762.75;5061507;28;20047;-76
2021/06/13 05:20:11;;;;;;;3.80;2.65;;;;;;;20.92;54.81;99767.34;5060960;28;20050;-77
2021/06/13 05:22:53;;;;;;;11.95;2.60;;;;;;;20.89;56.24;99757.66;5095040;28;20050;-76
2021/06/13 05:25:19;;;;;;;7.45;2.60;;;;;;;20.72;56.21;99766.91;5062052;28;20040;-76
2021/06/13 05:27:45;;;;;;;3.70;2.55;;;;;;;20.65;56.92;99758.66;5061176;28;20078;-75
2021/06/13 05:30:12;;;;;;;8.38;3.05;;;;;;;20.60;57.02;99753.72;5060964;28;20119;-75
2021/06/13 05:32:38;;;;;;;6.93;2.67;;;;;;;20.63;57.68;99759.84;5077803;28;20044;-76
2021/06/13 05:35:04;;;;;;;6.07;2.55;;;;;;;20.68;57.92;99741.13;5077383;28;20051;-74
2021/06/13 05:37:30;;;;;;;4.53;2.40;;;;;;;20.84;57.93;99749.19;5094335;28;20217;-75
2021/06/13 05:39:56;;;;;;;9.02;2.78;;;;;;;20.96;57.89;99758.63;5094587;28;20608;-75
2021/06/13 05:42:22;;;;;;;4.72;2.90;;;;;;;21.16;58.19;99752.72;5044715;28;20525;-74
2021/06/13 05:44:48;;;;;;;8.93;3.05;;;;;;;21.44;57.68;99740.31;5112104;28;20108;-75
2021/06/13 05:47:14;;;;;;;6.07;3.30;;;;;;;21.73;56.40;99744.09;5094313;28;20531;-75
2021/06/13 05:49:40;;;;;;;5.45;2.50;;;;;;;21.93;55.36;99742.53;5077538;28;20039;-74
2021/06/13 05:52:06;;;;;;;6.00;2.83;;;;;;;22.15;54.49;99745.38;5119626;28;20081;-75
2021/06/13 05:54:33;;;;;;;7.75;3.20;;;;;;;22.40;54.49;99746.78;5133097;27;20046;-74
2021/06/13 05:56:59;;;;;;;5.45;2.65;;;;;;;22.62;53.34;99741.41;5132567;28;20058;-74
2021/06/13 05:59:25;;;;;;;7.03;2.78;;;;;;;22.90;52.75;99736.91;5128231;27;20426;-74
2021/06/13 06:01:51;;;;;;;5.25;2.40;;;;;;;23.16;51.87;99735.53;5112134;28;20138;-75
2021/06/13 06:04:17;;;;;;;4.10;2.72;;;;;;;22.91;51.79;99743.22;5093921;28;20126;-75
2021/06/13 06:06:43;;;;;;;5.38;2.40;;;;;;;23.06;51.60;99733.16;5093928;28;20047;-73
2021/06/13 06:09:09;;;;;;;5.47;2.42;;;;;;;23.25;51.04;99737.94;5111822;28;20035;-74
2021/06/13 06:11:39;;;;;;;4.35;2.35;;;;;;;23.52;50.60;99736.28;5110828;28;20173;-74
2021/06/13 06:14:05;;;;;;;4.88;2.70;;;;;;;23.35;49.49;99736.75;5078313;28;20056;-73
2021/06/13 06:16:31;;;;;;;5.50;2.40;;;;;;;23.15;50.24;99739.31;5078214;28;20046;-74
2021/06/13 06:18:57;;;;;;;8.38;2.60;;;;;;;23.11;50.64;99735.28;5094466;28;20040;-81
2021/06/13 06:21:24;;;;;;;4.65;1.92;;;;;;;23.05;49.82;99738.78;5061262;28;20079;-78
2021/06/13 06:23:49;;;;;;;4.93;2.03;;;;;;;22.88;50.16;99739.00;5094589;28;20398;-75
2021/06/13 06:26:15;;;;;;;7.25;2.55;;;;;;;22.68;50.37;99746.06;5112306;28;20126;-75
2021/06/13 06:28:41;;;;;;;3.22;2.40;;;;;;;22.58;50.92;99743.66;5061237;28;20044;-78
2021/06/13 06:31:07;;;;;;;6.03;2.42;;;;;;;22.45;50.84;99738.03;5112592;28;20501;-76
2021/06/13 06:33:33;;;;;;;4.18;2.10;;;;;;;22.22;51.05;99738.16;5115917;28;20067;-76
2021/06/13 06:35:59;;;;;;;7.72;3.05;;;;;;;22.10;51.90;99739.63;5081283;28;20043;-76
2021/06/13 06:38:25;;;;;;;4.28;2.50;;;;;;;22.11;52.24;99741.31;5116151;28;20452;-77
2021/06/13 06:40:51;;;;;;;8.75;2.83;;;;;;;22.11;52.23;99752.22;5097864;28;20044;-76
2021/06/13 06:43:17;;;;;;;8.88;3.00;;;;;;;22.11;52.23;99744.88;5115707;28;20047;-75
2021/06/13 06:45:44;;;;;;;6.72;3.05;;;;;;;22.06;52.43;99734.56;5098044;28;20134;-78
2021/06/13 06:48:10;;;;;;;7.03;2.83;;;;;;;22.03;53.10;99732.22;5081461;28;20047;-77
2021/06/13 06:50:36;;;;;;;6.65;3.20;;;;;;;22.14;52.84;99730.09;5098146;28;20055;-77
2021/06/13 06:53:02;;;;;;;8.50;3.75;;;;;;;22.23;52.40;99739.88;5081403;28;20075;-78
2021/06/13 06:55:28;;;;;;;5.55;3.30;;;;;;;22.33;52.02;99736.84;5060960;28;20075;-77
2021/06/13 06:57:55;;;;;;;8.88;3.00;;;;;;;22.29;51.68;99729.03;5095770;28;20044;-76
2021/06/13 07:00:21;;;;;;;5.20;2.70;;;;;;;22.15;52.02;99715.44;5095671;28;20052;-76
2021/06/13 07:02:47;;;;;;;3.60;2.65;;;;;;;22.26;51.98;99723.13;5095318;28;20040;-79
2021/06/13 07:05:13;;;;;;;8.20;2.92;;;;;;;22.38;52.07;99712.59;5077200;28;20534;-77
2021/06/13 07:07:39;;;;;;;4.13;2.75;;;;;;;22.59;51.90;99717.25;5094192;28;20070;-79
2021/06/13 07:10:06;;;;;;;6.80;2.90;;;;;;;22.79;52.01;99718.31;5076997;28;20051;-78
2021/06/13 07:12:32;;;;;;;4.28;2.60;;;;;;;23.03;51.10;99719.88;5044025;28;20044;-76
2021/06/13 07:14:57;;;;;;;9.60;3.15;;;;;;;23.31;50.52;99728.13;5077353;28;20051;-77
2021/06/13 07:17:23;;;;;;;5.20;2.83;;;;;;;23.54;49.96;99729.78;5093841;28;20142;-77
2021/06/13 07:19:49;;;;;;;6.53;2.70;;;;;;;23.71;49.43;99726.59;5094041;28;20143;-77
2021/06/13 07:22:15;;;;;;;3.72;2.83;;;;;;;23.90;48.91;99730.53;5060759;28;20044;-78
2021/06/13 07:24:41;;;;;;;7.15;3.45;;;;;;;24.05;48.78;99732.31;5093877;28;20104;-78
2021/06/13 07:27:07;;;;;;;13.55;4.05;;;;;;;24.24;48.52;99726.09;5094979;28;20433;-78
2021/06/13 07:29:33;;;;;;;8.63;3.58;;;;;;;24.37;48.32;99723.44;5060792;28;20077;-78
2021/06/13 07:31:59;;;;;;;4.75;3.30;;;;;;;24.31;48.03;99724.25;5076719;28;20064;-81
2021/06/13 07:34:25;;;;;;;9.85;3.70;;;;;;;24.33;48.20;99721.31;5060373;28;20048;-79
2021/06/13 07:36:51;;;;;;;8.68;3.30;;;;;;;24.43;48.27;99721.81;5094827;28;20054;-76
2021/06/13 07:39:17;;;;;;;8.68;3.35;;;;;;;24.55;48.64;99724.81;5094818;28;20491;-77
2021/06/13 07:41:43;;;;;;;10.05;3.50;;;;;;;24.59;48.16;99720.63;5095070;28;20454;-79
2021/06/13 07:44:09;;;;;;;11.63;3.17;;;;;;;24.47;48.67;99713.00;5092801;28;20059;-77
2021/06/13 07:46:35;;;;;;;9.13;3.00;;;;;;;24.42;48.54;99720.97;5043676;28;20082;-77
2021/06/13 07:49:01;;;;;;;9.65;3.10;;;;;;;24.51;47.81;99723.53;5093328;28;20079;-75
2021/06/13 07:51:27;;;;;;;7.50;2.95;;;;;;;24.58;47.81;99713.47;5093299;28;20044;-77
2021/06/13 07:53:54;;;;;;;5.32;2.85;;;;;;;24.83;47.56;99721.97;5043430;28;20072;-75
2021/06/13 07:56:20;;;;;;;9.05;3.00;;;;;;;25.11;46.78;99719.09;5093233;28;20139;-75
2021/06/13 07:58:45;;;;;;;8.32;3.28;;;;;;;25.33;46.44;99717.88;5094380;28;20128;-79
2021/06/13 08:01:11;;;;;;;8.25;2.90;;;;;;;25.58;45.81;99725.47;5076361;28;20054;-77
2021/06/13 08:03:41;;;;;;;10.07;2.78;;;;;;;25.77;45.08;99718.28;5093136;28;20051;-77
2021/06/13 08:06:07;;;;;;;9.85;2.75;;;;;;;26.01;44.59;99716.81;5076273;28;20048;-77
2021/06/13 08:08:32;;;;;;;7.93;2.75;;;;;;;26.18;43.94;99718.03;5094678;28;20044;-77
2021/06/13 08:11:00;;;;;;;7.82;2.72;;;;;;;26.24;43.09;99722.63;5094121;28;20138;-78
2021/06/13 08:13:26;;;;;;;11.63;2.42;;;;;;;26.28;43.24;99720.31;5059786;28;20122;-78
2021/06/13 08:15:52;;;;;;;10.52;2.40;;;;;;;26.20;43.05;99718.66;5076148;28;20368;-76
2021/06/13 08:18:18;;;;;;;14.65;2.63;;;;;;;25.90;44.02;99713.66;5092886;28;20040;-78
2021/06/13 08:20:44;;;;;;;9.52;2.92;;;;;;;25.92;43.89;99717.03;5094643;28;20035;-81
2021/06/13 08:23:10;;;;;;;10.07;2.53;;;;;;;25.95;44.15;99723.13;5043262;28;20063;-81
2021/06/13 08:25:37;;;;;;;10.57;2.38;;;;;;;25.91;43.74;99726.31;5076251;28;20101;-84
2021/06/13 08:28:02;;;;;;;12.38;2.75;;;;;;;25.80;44.10;99718.75;5092986;28;20394;-81
2021/06/13 08:30:29;;;;;;;12.35;2.30;;;;;;;25.66;44.07;99717.03;5094245;28;20044;-77
2021/06/13 08:32:55;;;;;;;13.27;2.90;;;;;;;25.56;43.83;99711.13;5094146;28;20062;-77
2021/06/13 08:35:21;;;;;;;9.52;3.10;;;;;;;25.49;44.22;99721.25;5026144;28;20043;-80
2021/06/13 08:37:49;;;;;;;11.32;3.10;;;;;;;25.44;43.78;99713.66;5094166;28;20048;-80
2021/06/13 08:40:15;;;;;;;13.43;3.00;;;;;;;25.33;43.84;99712.41;5075891;28;20118;-79
2021/06/13 08:42:42;;;;;;;12.15;3.22;;;;;;;25.21;44.21;99714.09;5042508;28;20614;-76
2021/06/13 08:45:09;;;;;;;9.35;2.55;;;;;;;25.30;43.74;99709.25;5092145;28;20051;-76
2021/06/13 08:47:35;;;;;;;12.52;2.50;;;;;;;25.33;44.07;99704.19;5042157;28;20508;-76
2021/06/13 08:50:02;;;;;;;8.23;3.03;;;;;;;25.22;43.92;99696.59;5092140;28;20541;-76
2021/06/13 08:52:28;;;;;;;8.18;2.60;;;;;;;25.15;44.09;99698.50;5058589;28;20040;-77
2021/06/13 08:54:54;;;;;;;7.40;2.80;;;;;;;25.15;43.55;99709.44;5026772;28;20092;-76
2021/06/13 08:57:20;;;;;;;7.18;2.92;;;;;;;25.03;43.38;99700.13;5061745;28;20452;-76
2021/06/13 08:59:47;;;;;;;11.65;3.40;;;;;;;25.04;44.05;99696.34;5095066;28;20410;-76
2021/06/13 09:02:13;;;;;;;8.95;3.28;;;;;;;25.08;43.94;99708.53;5079129;28;20085;-76
2021/06/13 09:04:39;;;;;;;10.18;3.17;;;;;;;24.98;44.07;99708.13;5078727;28;20047;-79
2021/06/13 09:07:15;;;;;;;14.95;3.28;;;;;;;25.01;43.76;99707.69;5062557;28;20035;-78
2021/06/13 09:09:41;;;;;;;9.35;3.08;;;;;;;24.96;43.61;99711.88;5062213;28;20521;-79
2021/06/13 09:12:07;;;;;;;9.82;3.00;;;;;;;25.00;43.77;99706.00;5045002;28;20114;-78
2021/06/13 09:14:44;;;;;;;18.70;3.42;;;;;;;25.00;43.96;99708.75;5062047;28;20055;-78
2021/06/13 09:17:21;;;;;;;6.55;2.97;;;;;;;24.90;44.07;99696.34;5063107;28;20081;-77
2021/06/13 09:20:23;;;;;;;14.68;3.10;;;;;;;25.03;44.18;99708.34;5063270;28;20039;-77
2021/06/13 09:23:15;;;;;;;5.28;2.67;;;;;;;24.92;44.59;99699.69;5113014;28;20054;-77
2021/06/13 09:25:42;;;;;;;10.82;2.60;;;;;;;24.94;44.56;99696.75;5095558;28;20055;-78
2021/06/13 09:28:18;;;;;;;7.07;2.97;;;;;;;24.89;44.27;99696.53;5113491;28;20039;-78
2021/06/13 09:30:51;;;;;;;14.95;3.35;;;;;;;24.91;44.04;99698.00;5061596;28;20047;-77
2021/06/13 09:33:31;;;;;;;7.38;2.70;;;;;;;24.91;43.61;99706.22;5078805;28;20040;-78
2021/06/13 09:35:58;;;;;;;9.00;3.40;;;;;;;24.96;43.60;99706.41;5061997;28;20035;-76
2021/06/13 09:38:28;;;;;;;9.93;3.60;;;;;;;24.90;42.64;99701.81;5061356;28;20042;-77
2021/06/13 09:41:09;;;;;;;13.68;3.42;;;;;;;24.80;42.83;99701.34;5060709;28;20048;-76
2021/06/13 09:43:46;;;;;;;7.82;3.50;;;;;;;24.70;43.03;99689.94;5077839;28;20051;-75
2021/06/13 09:46:23;;;;;;;14.88;4.20;;;;;;;24.81;42.92;99692.09;5076693;28;20387;-78
2021/06/13 09:48:50;;;;;;;11.30;5.03;;;;;;;24.94;42.23;99680.34;5112965;28;20570;-76
2021/06/13 09:51:18;;;;;;;16.55;5.20;;;;;;;24.89;42.18;99675.47;5077162;28;20044;-76
2021/06/13 09:53:45;;;;;;;9.05;4.55;;;;;;;25.09;42.27;99666.50;5083671;28;20043;-75
2021/06/13 09:56:22;;;;;;;11.68;4.00;;;;;;;25.25;41.47;99671.56;5100286;28;20074;-74
2021/06/13 09:59:01;;;;;;;9.95;3.60;;;;;;;25.28;41.42;99668.41;5097217;28;20047;-78
2021/06/13 10:01:33;;;;;;;4.90;3.17;;;;;;;25.36;40.40;99659.16;5086033;28;20047;-75
2021/06/13 10:04:00;;;;;;;7.97;3.10;;;;;;;25.32;39.95;99655.16;5078116;28;20051;-74
2021/06/13 10:06:31;;;;;;;7.50;3.15;;;;;;;25.33;39.95;99649.47;5094180;28;20132;-76
2021/06/13 10:08:57;;;;;;;7.68;3.20;;;;;;;25.49;40.33;99647.34;5098601;28;20469;-76
2021/06/13 10:11:23;;;;;;;6.68;2.85;;;;;;;25.64;40.11;99640.56;5098345;28;20039;-76
2021/06/13 10:14:18;;;;;;;9.75;3.17;;;;;;;25.93;39.67;99646.66;5116165;28;20075;-75
2021/06/13 10:16:48;;;;;;;6.43;2.88;;;;;;;25.99;39.60;99640.34;5113165;28;20126;-77
2021/06/13 10:19:15;;;;;;;9.88;2.75;;;;;;;26.19;38.74;99644.91;5098283;28;20105;-77
2021/06/13 10:21:57;;;;;;;7.35;3.10;;;;;;;26.48;37.93;99654.47;5064524;28;20043;-77
2021/06/13 10:24:25;;;;;;;9.88;3.13;;;;;;;26.53;38.10;99651.94;5080882;28;20410;-80
2021/06/13 10:27:01;;;;;;;8.37;3.00;;;;;;;26.68;38.09;99649.75;5098156;28;20538;-77
2021/06/13 10:29:29;;;;;;;8.50;3.00;;;;;;;26.88;37.46;99644.94;5081400;28;20054;-75
2021/06/13 10:31:56;;;;;;;9.82;3.30;;;;;;;27.07;36.90;99631.31;5081551;28;20081;-75
2021/06/13 10:34:23;;;;;;;9.05;3.03;;;;;;;27.21;35.67;99640.31;5048380;28;20040;-76
2021/06/13 10:36:49;;;;;;;9.77;2.72;;;;;;;27.26;35.50;99638.56;5064840;28;20148;-75
2021/06/13 10:39:17;;;;;;;5.43;3.00;;;;;;;27.32;35.08;99632.19;5064771;28;20039;-75
2021/06/13 10:41:43;;;;;;;11.07;4.18;;;;;;;27.29;34.79;99629.06;5064587;28;20040;-76
2021/06/13 10:44:11;;;;;;;18.15;7.50;;;;;;;27.23;35.05;99625.31;5064258;28;20131;-77
2021/06/13 10:46:38;;;;;;;22.97;14.07;;;;;;;27.39;34.77;99634.88;5098482;28;20103;-76
2021/06/13 10:49:05;;;;;;;13.40;9.02;;;;;;;27.31;33.76;99626.94;5047700;28;20040;-75
2021/06/13 10:52:02;;;;;;;11.10;3.85;;;;;;;27.16;33.74;99638.25;5064283;28;20051;-75
2021/06/13 10:54:36;;;;;;;10.95;2.80;;;;;;;27.01;33.52;99621.25;5081029;28;20035;-76
2021/06/13 10:57:02;;;;;;;8.23;3.67;;;;;;;26.87;34.02;99624.06;5099098;28;20063;-75
2021/06/13 10:59:31;;;;;;;6.90;3.22;;;;;;;26.72;34.86;99629.03;5080756;28;20088;-76
2021/06/13 11:02:09;;;;;;;9.05;3.92;;;;;;;26.61;34.64;99632.47;5081114;28;20042;-75
2021/06/13 11:04:45;;;;;;;4.13;2.80;;;;;;;26.55;34.14;99627.88;5065345;28;20118;-76
2021/06/13 11:07:27;;;;;;;8.63;2.72;;;;;;;26.35;34.07;99628.78;5081056;28;20100;-75
2021/06/13 11:10:13;;;;;;;8.45;3.20;;;;;;;26.32;34.33;99628.38;5065885;28;20403;-75
2021/06/13 11:12:52;;;;;;;14.75;3.58;;;;;;;26.34;34.35;99623.53;5097366;28;20051;-75
2021/06/13 11:15:39;;;;;;;;;;;;;;;26.31;34.60;99616.56;5064491;28;20075;-76
2021/06/13 11:18:06;;;;;;;6.32;2.88;;;;;;;26.24;34.35;99615.78;5080090;28;19915;-76
2021/06/13 11:23:07;;;;;;;6.55;3.20;;;;;;;26.19;34.70;99617.50;5065041;28;20055;-75
2021/06/13 11:25:36;;;;;;;6.13;2.95;;;;;;;26.17;34.98;99613.06;5063994;28;20097;-76
2021/06/13 11:28:22;;;;;;;6.50;3.22;;;;;;;26.21;35.43;99621.69;5063643;28;20048;-76
2021/06/13 11:30:59;;;;;;;6.97;2.72;;;;;;;26.00;35.55;99597.34;5047826;28;20205;-75
2021/06/13 11:33:34;;;;;;;8.68;2.95;;;;;;;26.08;35.96;99613.53;5080249;28;20123;-76
2021/06/13 11:36:04;;;;;;;10.48;3.47;;;;;;;26.04;35.67;99598.59;5096897;28;20047;-75
2021/06/13 11:38:31;;;;;;;15.50;2.80;;;;;;;26.09;35.93;99601.50;5064068;28;20039;-76
2021/06/13 11:41:04;;;;;;;10.95;3.00;;;;;;;26.01;36.05;99593.53;5046946;28;20043;-75
2021/06/13 11:43:44;;;;;;;10.50;3.20;;;;;;;25.86;36.63;99597.38;5047270;28;20039;-75